sensor_id;sensor_type;location;lat;lon;timestamp;pressure;altitude;pressure_sealevel;temperature;humidity
64908;BME280;64365;-1.756;110.040;2023-02-20T00:00:16;102430.56;;;7.35;88.18
64908;BME280;64365;-1.756;110.040;2023-02-20T00:02:44;102424.75;;;7.24;88.64
64908;BME280;64365;-1.756;110.040;2023-02-20T00:05:11;102444.22;;;7.29;88.78
64908;BME280;64365;-1.756;110.040;2023-02-20T00:07:38;102456.81;;;7.32;88.72
64908;BME280;64365;-1.756;110.040;2023-02-20T00:10:05;102448.91;;;7.32;88.96
64908;BME280;64365;-1.756;110.040;2023-02-20T00:12:32;102440.19;;;7.31;89.47
64908;BME280;64365;-1.756;110.040;2023-02-20T00:14:58;102422.44;;;7.32;88.68
64908;BME280;64365;-1.756;110.040;2023-02-20T00:17:26;102423.72;;;7.34;88.76
64908;BME280;64365;-1.756;110.040;2023-02-20T00:19:53;102422.34;;;7.37;88.92
64908;BME280;64365;-1.756;110.040;2023-02-20T00:22:20;102425.09;;;7.32;89.29
64908;BME280;64365;-1.756;110.040;2023-02-20T00:24:47;102413.78;;;7.40;88.82
64908;BME280;64365;-1.756;110.040;2023-02-20T00:27:14;102401.47;;;7.35;89.05
64908;BME280;64365;-1.756;110.040;2023-02-20T00:29:42;102405.19;;;7.34;89.01
64908;BME280;64365;-1.756;110.040;2023-02-20T00:32:10;102405.84;;;7.40;89.08
64908;BME280;64365;-1.756;110.040;2023-02-20T00:34:38;102408.16;;;7.33;89.36
64908;BME280;64365;-1.756;110.040;2023-02-20T00:37:04;102400.56;;;7.40;89.27
64908;BME280;64365;-1.756;110.040;2023-02-20T00:39:31;102393.13;;;7.42;89.41
64908;BME280;64365;-1.756;110.040;2023-02-20T00:41:57;102399.97;;;7.43;89.30
64908;BME280;64365;-1.756;110.040;2023-02-20T00:44:24;102384.84;;;7.35;89.77
64908;BME280;64365;-1.756;110.040;2023-02-20T00:46:51;102393.72;;;7.39;89.56
64908;BME280;64365;-1.756;110.040;2023-02-20T00:49:18;102388.59;;;7.42;89.57
64908;BME280;64365;-1.756;110.040;2023-02-20T00:51:46;102396.72;;;7.46;89.41
64908;BME280;64365;-1.756;110.040;2023-02-20T00:54:13;102391.09;;;7.39;90.18
64908;BME280;64365;-1.756;110.040;2023-02-20T00:56:39;102383.28;;;7.34;90.35
64908;BME280;64365;-1.756;110.040;2023-02-20T00:59:06;102377.84;;;7.39;90.70
64908;BME280;64365;-1.756;110.040;2023-02-20T01:01:33;102369.31;;;7.42;90.64
64908;BME280;64365;-1.756;110.040;2023-02-20T01:03:59;102364.47;;;7.44;90.30
64908;BME280;64365;-1.756;110.040;2023-02-20T01:06:26;102340.22;;;7.42;90.93
64908;BME280;64365;-1.756;110.040;2023-02-20T01:08:54;102317.16;;;7.34;91.04
64908;BME280;64365;-1.756;110.040;2023-02-20T01:11:21;102317.16;;;7.34;90.59
64908;BME280;64365;-1.756;110.040;2023-02-20T01:13:48;102310.16;;;7.38;90.49
64908;BME280;64365;-1.756;110.040;2023-02-20T01:16:14;102290.81;;;7.29;90.33
64908;BME280;64365;-1.756;110.040;2023-02-20T01:18:41;102308.72;;;7.32;90.46
64908;BME280;64365;-1.756;110.040;2023-02-20T01:21:07;102308.41;;;7.33;90.38
64908;BME280;64365;-1.756;110.040;2023-02-20T01:23:34;102314.63;;;7.29;90.49
64908;BME280;64365;-1.756;110.040;2023-02-20T01:26:02;102320.41;;;7.31;90.43
64908;BME280;64365;-1.756;110.040;2023-02-20T01:28:28;102323.50;;;7.33;91.05
64908;BME280;64365;-1.756;110.040;2023-02-20T01:30:55;102319.47;;;7.35;91.24
64908;BME280;64365;-1.756;110.040;2023-02-20T01:33:21;102309.47;;;7.23;91.23
64908;BME280;64365;-1.756;110.040;2023-02-20T01:35:48;102306.56;;;7.34;90.97
64908;BME280;64365;-1.756;110.040;2023-02-20T01:38:14;102307.00;;;7.27;91.14
64908;BME280;64365;-1.756;110.040;2023-02-20T01:40:46;102314.63;;;7.29;91.04
64908;BME280;64365;-1.756;110.040;2023-02-20T01:43:14;102301.41;;;7.29;91.52
64908;BME280;64365;-1.756;110.040;2023-02-20T01:45:41;102305.91;;;7.28;91.13
64908;BME280;64365;-1.756;110.040;2023-02-20T01:48:19;102308.38;;;7.24;91.69
64908;BME280;64365;-1.756;110.040;2023-02-20T01:50:46;102300.94;;;7.27;91.68
64908;BME280;64365;-1.756;110.040;2023-02-20T01:53:17;102304.00;;;7.20;92.07
64908;BME280;64365;-1.756;110.040;2023-02-20T01:55:48;102298.88;;;7.23;91.82
64908;BME280;64365;-1.756;110.040;2023-02-20T01:58:21;102302.13;;;7.20;91.95
64908;BME280;64365;-1.756;110.040;2023-02-20T02:00:48;102292.34;;;7.21;92.38
64908;BME280;64365;-1.756;110.040;2023-02-20T02:03:19;102291.56;;;7.20;92.46
64908;BME280;64365;-1.756;110.040;2023-02-20T02:05:50;102273.34;;;7.19;92.63
64908;BME280;64365;-1.756;110.040;2023-02-20T02:08:18;102287.03;;;7.21;92.11
64908;BME280;64365;-1.756;110.040;2023-02-20T02:10:51;102289.69;;;7.21;92.73
64908;BME280;64365;-1.756;110.040;2023-02-20T02:13:20;102290.19;;;7.23;92.55
64908;BME280;64365;-1.756;110.040;2023-02-20T02:15:50;102288.59;;;7.22;93.22
64908;BME280;64365;-1.756;110.040;2023-02-20T02:18:30;102278.81;;;7.22;92.92
64908;BME280;64365;-1.756;110.040;2023-02-20T02:27:20;102272.13;;;7.25;94.16
64908;BME280;64365;-1.756;110.040;2023-02-20T02:36:15;102263.03;;;7.40;94.33
64908;BME280;64365;-1.756;110.040;2023-02-20T02:38:51;102245.13;;;7.37;95.21
64908;BME280;64365;-1.756;110.040;2023-02-20T02:41:23;102258.84;;;7.48;94.69
64908;BME280;64365;-1.756;110.040;2023-02-20T02:43:58;102240.66;;;7.46;95.13
64908;BME280;64365;-1.756;110.040;2023-02-20T02:46:34;102239.59;;;7.56;95.01
64908;BME280;64365;-1.756;110.040;2023-02-20T02:49:06;102232.88;;;7.50;94.94
64908;BME280;64365;-1.756;110.040;2023-02-20T02:51:39;102244.56;;;7.49;95.85
64908;BME280;64365;-1.756;110.040;2023-02-20T02:54:13;102243.63;;;7.53;95.87
64908;BME280;64365;-1.756;110.040;2023-02-20T02:56:42;102243.97;;;7.61;95.97
64908;BME280;64365;-1.756;110.040;2023-02-20T02:59:13;102240.69;;;7.64;96.30
64908;BME280;64365;-1.756;110.040;2023-02-20T03:01:44;102228.41;;;7.59;96.26
64908;BME280;64365;-1.756;110.040;2023-02-20T03:04:12;102243.53;;;7.76;96.14
64908;BME280;64365;-1.756;110.040;2023-02-20T03:06:50;102236.84;;;7.79;96.64
64908;BME280;64365;-1.756;110.040;2023-02-20T03:09:20;102236.53;;;7.80;96.72
64908;BME280;64365;-1.756;110.040;2023-02-20T03:11:51;102221.41;;;7.72;96.57
64908;BME280;64365;-1.756;110.040;2023-02-20T03:14:21;102231.09;;;7.85;96.91
64908;BME280;64365;-1.756;110.040;2023-02-20T03:17:09;102238.91;;;7.90;97.59
64908;BME280;64365;-1.756;110.040;2023-02-20T03:19:40;102225.34;;;7.92;97.05
64908;BME280;64365;-1.756;110.040;2023-02-20T03:22:12;102209.63;;;7.96;97.00
64908;BME280;64365;-1.756;110.040;2023-02-20T03:24:42;102225.53;;;8.04;96.70
64908;BME280;64365;-1.756;110.040;2023-02-20T03:27:22;102226.13;;;8.10;96.54
64908;BME280;64365;-1.756;110.040;2023-02-20T03:29:51;102220.69;;;8.15;96.54
64908;BME280;64365;-1.756;110.040;2023-02-20T03:32:23;102229.44;;;8.24;96.07
64908;BME280;64365;-1.756;110.040;2023-02-20T03:35:08;102222.13;;;8.21;96.21
64908;BME280;64365;-1.756;110.040;2023-02-20T03:37:54;102214.00;;;8.18;96.57
64908;BME280;64365;-1.756;110.040;2023-02-20T03:40:39;102216.81;;;8.21;96.66
64908;BME280;64365;-1.756;110.040;2023-02-20T03:43:26;102203.25;;;8.23;96.33
64908;BME280;64365;-1.756;110.040;2023-02-20T03:45:59;102210.25;;;8.27;96.35
64908;BME280;64365;-1.756;110.040;2023-02-20T03:48:31;102201.66;;;8.31;96.66
64908;BME280;64365;-1.756;110.040;2023-02-20T03:51:00;102195.44;;;8.35;96.07
64908;BME280;64365;-1.756;110.040;2023-02-20T03:53:42;102184.69;;;8.32;95.96
64908;BME280;64365;-1.756;110.040;2023-02-20T03:56:12;102190.94;;;8.36;96.51
64908;BME280;64365;-1.756;110.040;2023-02-20T03:58:43;102189.06;;;8.36;95.82
64908;BME280;64365;-1.756;110.040;2023-02-20T04:01:12;102180.19;;;8.32;96.18
64908;BME280;64365;-1.756;110.040;2023-02-20T04:03:43;102175.81;;;8.36;96.20
64908;BME280;64365;-1.756;110.040;2023-02-20T04:06:13;102177.53;;;8.41;96.68
64908;BME280;64365;-1.756;110.040;2023-02-20T04:08:45;102181.91;;;8.46;96.20
64908;BME280;64365;-1.756;110.040;2023-02-20T04:11:19;102173.34;;;8.49;96.01
64908;BME280;64365;-1.756;110.040;2023-02-20T04:13:48;102174.59;;;8.51;96.03
64908;BME280;64365;-1.756;110.040;2023-02-20T04:16:16;102183.59;;;8.59;95.95
64908;BME280;64365;-1.756;110.040;2023-02-20T04:18:43;102180.94;;;8.59;95.52
64908;BME280;64365;-1.756;110.040;2023-02-20T04:21:20;102172.81;;;8.64;95.29
64908;BME280;64365;-1.756;110.040;2023-02-20T04:23:57;102167.69;;;8.59;95.33
64908;BME280;64365;-1.756;110.040;2023-02-20T04:26:27;102191.06;;;8.66;95.46
64908;BME280;64365;-1.756;110.040;2023-02-20T04:28:55;102180.78;;;8.64;95.22
64908;BME280;64365;-1.756;110.040;2023-02-20T04:31:22;102176.28;;;8.65;95.30
64908;BME280;64365;-1.756;110.040;2023-02-20T04:33:49;102174.06;;;8.67;95.74
64908;BME280;64365;-1.756;110.040;2023-02-20T04:36:16;102180.94;;;8.68;95.19
64908;BME280;64365;-1.756;110.040;2023-02-20T04:38:43;102177.19;;;8.69;95.46
64908;BME280;64365;-1.756;110.040;2023-02-20T04:41:11;102185.75;;;8.74;95.11
64908;BME280;64365;-1.756;110.040;2023-02-20T04:43:37;102178.88;;;8.73;95.10
64908;BME280;64365;-1.756;110.040;2023-02-20T04:46:04;102188.09;;;8.76;94.88
64908;BME280;64365;-1.756;110.040;2023-02-20T04:48:31;102179.97;;;8.81;94.80
64908;BME280;64365;-1.756;110.040;2023-02-20T04:50:58;102186.19;;;8.76;94.95
64908;BME280;64365;-1.756;110.040;2023-02-20T04:53:24;102180.56;;;8.78;95.19
64908;BME280;64365;-1.756;110.040;2023-02-20T04:55:51;102181.53;;;8.82;94.72
64908;BME280;64365;-1.756;110.040;2023-02-20T04:58:19;102183.84;;;8.84;94.47
64908;BME280;64365;-1.756;110.040;2023-02-20T05:00:45;102180.09;;;8.85;94.72
64908;BME280;64365;-1.756;110.040;2023-02-20T05:03:12;102180.41;;;8.92;94.30
64908;BME280;64365;-1.756;110.040;2023-02-20T05:05:38;102168.72;;;8.84;93.99
64908;BME280;64365;-1.756;110.040;2023-02-20T05:08:06;102180.25;;;8.88;94.10
64908;BME280;64365;-1.756;110.040;2023-02-20T05:10:34;102180.25;;;8.88;93.89
64908;BME280;64365;-1.756;110.040;2023-02-20T05:13:01;102181.16;;;8.92;93.53
64908;BME280;64365;-1.756;110.040;2023-02-20T05:15:30;102169.47;;;8.85;93.28
64908;BME280;64365;-1.756;110.040;2023-02-20T05:17:57;102183.66;;;8.89;94.11
64908;BME280;64365;-1.756;110.040;2023-02-20T05:20:23;102190.69;;;8.93;93.82
64908;BME280;64365;-1.756;110.040;2023-02-20T05:23:10;102178.06;;;8.90;94.15
64908;BME280;64365;-1.756;110.040;2023-02-20T05:25:36;102203.16;;;8.93;93.97
64908;BME280;64365;-1.756;110.040;2023-02-20T05:28:02;102206.28;;;8.95;93.85
64908;BME280;64365;-1.756;110.040;2023-02-20T05:30:30;102193.16;;;8.99;93.99
64908;BME280;64365;-1.756;110.040;2023-02-20T05:32:57;102202.03;;;9.03;94.07
64908;BME280;64365;-1.756;110.040;2023-02-20T05:35:24;102192.19;;;9.03;93.36
64908;BME280;64365;-1.756;110.040;2023-02-20T05:37:50;102182.22;;;9.00;93.29
64908;BME280;64365;-1.756;110.040;2023-02-20T05:40:17;102181.28;;;9.05;93.29
64908;BME280;64365;-1.756;110.040;2023-02-20T05:42:43;102179.72;;;9.04;93.56
64908;BME280;64365;-1.756;110.040;2023-02-20T05:45:10;102188.31;;;9.01;93.43
64908;BME280;64365;-1.756;110.040;2023-02-20T05:47:38;102171.03;;;8.95;93.23
64908;BME280;64365;-1.756;110.040;2023-02-20T05:50:05;102175.03;;;9.01;92.89
64908;BME280;64365;-1.756;110.040;2023-02-20T05:52:32;102162.88;;;9.00;92.79
64908;BME280;64365;-1.756;110.040;2023-02-20T05:54:58;102170.72;;;8.96;92.81
64908;BME280;64365;-1.756;110.040;2023-02-20T05:57:25;102173.19;;;9.01;92.50
64908;BME280;64365;-1.756;110.040;2023-02-20T05:59:52;102170.41;;;8.89;93.07
64908;BME280;64365;-1.756;110.040;2023-02-20T06:02:19;102173.63;;;9.03;92.70
64908;BME280;64365;-1.756;110.040;2023-02-20T06:04:47;102171.31;;;9.02;92.34
64908;BME280;64365;-1.756;110.040;2023-02-20T06:07:13;102183.78;;;9.01;92.62
64908;BME280;64365;-1.756;110.040;2023-02-20T06:09:41;102169.75;;;9.01;92.50
64908;BME280;64365;-1.756;110.040;2023-02-20T06:12:08;102169.91;;;8.96;92.35
64908;BME280;64365;-1.756;110.040;2023-02-20T06:14:35;102176.13;;;9.00;91.54
64908;BME280;64365;-1.756;110.040;2023-02-20T06:17:01;102176.59;;;9.02;91.86
64908;BME280;64365;-1.756;110.040;2023-02-20T06:19:28;102181.44;;;9.00;91.78
64908;BME280;64365;-1.756;110.040;2023-02-20T06:21:55;102172.56;;;8.96;91.87
64908;BME280;64365;-1.756;110.040;2023-02-20T06:24:23;102166.00;;;9.02;91.61
64908;BME280;64365;-1.756;110.040;2023-02-20T06:26:50;102157.94;;;8.89;91.72
64908;BME280;64365;-1.756;110.040;2023-02-20T06:29:17;102168.97;;;9.00;92.08
64908;BME280;64365;-1.756;110.040;2023-02-20T06:31:44;102165.53;;;9.00;91.34
64908;BME280;64365;-1.756;110.040;2023-02-20T06:34:11;102178.06;;;8.90;91.53
64908;BME280;64365;-1.756;110.040;2023-02-20T06:36:39;102182.56;;;8.99;91.13
64908;BME280;64365;-1.756;110.040;2023-02-20T06:39:09;102176.78;;;8.97;91.38
64908;BME280;64365;-1.756;110.040;2023-02-20T06:41:36;102183.97;;;8.96;91.23
64908;BME280;64365;-1.756;110.040;2023-02-20T06:44:03;102181.47;;;8.91;91.61
64908;BME280;64365;-1.756;110.040;2023-02-20T06:46:30;102170.56;;;8.92;91.78
64908;BME280;64365;-1.756;110.040;2023-02-20T06:48:57;102171.47;;;8.97;91.61
64908;BME280;64365;-1.756;110.040;2023-02-20T06:51:26;102163.06;;;8.95;91.61
64908;BME280;64365;-1.756;110.040;2023-02-20T06:53:52;102172.56;;;8.96;91.21
64908;BME280;64365;-1.756;110.040;2023-02-20T06:56:22;102180.41;;;8.92;91.50
64908;BME280;64365;-1.756;110.040;2023-02-20T06:58:51;102172.44;;;8.92;91.86
64908;BME280;64365;-1.756;110.040;2023-02-20T07:01:19;102172.28;;;8.97;90.95
64908;BME280;64365;-1.756;110.040;2023-02-20T07:03:47;102173.34;;;8.96;91.50
64908;BME280;64365;-1.756;110.040;2023-02-20T07:06:14;102181.63;;;8.95;91.82
64908;BME280;64365;-1.756;110.040;2023-02-20T07:08:41;102159.53;;;8.82;91.87
64908;BME280;64365;-1.756;110.040;2023-02-20T07:11:08;102165.91;;;8.89;91.16
64908;BME280;64365;-1.756;110.040;2023-02-20T07:13:36;102188.19;;;8.97;91.30
64908;BME280;64365;-1.756;110.040;2023-02-20T07:16:04;102172.47;;;8.83;91.80
64908;BME280;64365;-1.756;110.040;2023-02-20T07:18:30;102191.13;;;8.96;91.33
64908;BME280;64365;-1.756;110.040;2023-02-20T07:20:57;102181.31;;;8.96;91.21
64908;BME280;64365;-1.756;110.040;2023-02-20T07:23:24;102195.50;;;8.91;91.57
64908;BME280;64365;-1.756;110.040;2023-02-20T07:25:50;102191.75;;;8.92;91.81
64908;BME280;64365;-1.756;110.040;2023-02-20T07:28:18;102193.66;;;8.92;91.82
64908;BME280;64365;-1.756;110.040;2023-02-20T07:30:46;102199.56;;;8.98;92.01
64908;BME280;64365;-1.756;110.040;2023-02-20T07:33:13;102201.56;;;9.01;91.38
64908;BME280;64365;-1.756;110.040;2023-02-20T07:35:40;102204.84;;;8.98;91.75
64908;BME280;64365;-1.756;110.040;2023-02-20T07:38:07;102193.00;;;9.04;91.53
64908;BME280;64365;-1.756;110.040;2023-02-20T07:40:33;102192.03;;;9.08;91.13
64908;BME280;64365;-1.756;110.040;2023-02-20T07:43:00;102186.28;;;8.98;91.67
64908;BME280;64365;-1.756;110.040;2023-02-20T07:45:26;102179.59;;;9.00;91.42
64908;BME280;64365;-1.756;110.040;2023-02-20T07:47:54;102194.22;;;9.06;91.28
64908;BME280;64365;-1.756;110.040;2023-02-20T07:50:21;102190.28;;;9.13;90.77
64908;BME280;64365;-1.756;110.040;2023-02-20T07:52:48;102174.22;;;9.09;90.79
64908;BME280;64365;-1.756;110.040;2023-02-20T07:55:16;102189.22;;;9.05;91.41
64908;BME280;64365;-1.756;110.040;2023-02-20T07:57:45;102185.75;;;9.13;91.04
64908;BME280;64365;-1.756;110.040;2023-02-20T08:00:13;102193.91;;;9.08;91.55
64908;BME280;64365;-1.756;110.040;2023-02-20T08:02:40;102189.69;;;9.07;91.53
64908;BME280;64365;-1.756;110.040;2023-02-20T08:05:08;102209.63;;;9.13;91.41
64908;BME280;64365;-1.756;110.040;2023-02-20T08:07:35;102189.06;;;9.10;91.64
64908;BME280;64365;-1.756;110.040;2023-02-20T08:10:03;102183.31;;;9.08;91.59
64908;BME280;64365;-1.756;110.040;2023-02-20T08:12:29;102196.19;;;9.18;91.31
64908;BME280;64365;-1.756;110.040;2023-02-20T08:14:56;102193.53;;;9.18;91.36
64908;BME280;64365;-1.756;110.040;2023-02-20T08:17:22;102180.44;;;9.13;91.70
64908;BME280;64365;-1.756;110.040;2023-02-20T08:19:49;102178.41;;;9.19;91.50
64908;BME280;64365;-1.756;110.040;2023-02-20T08:22:17;102186.66;;;9.17;92.07
64908;BME280;64365;-1.756;110.040;2023-02-20T08:24:43;102189.16;;;9.22;91.95
64908;BME280;64365;-1.756;110.040;2023-02-20T08:27:10;102181.50;;;9.30;91.85
64908;BME280;64365;-1.756;110.040;2023-02-20T08:29:36;102186.31;;;9.27;92.19
64908;BME280;64365;-1.756;110.040;2023-02-20T08:32:03;102184.16;;;9.30;91.51
64908;BME280;64365;-1.756;110.040;2023-02-20T08:34:30;102199.34;;;9.41;91.84
64908;BME280;64365;-1.756;110.040;2023-02-20T08:36:56;102187.81;;;9.37;91.63
64908;BME280;64365;-1.756;110.040;2023-02-20T08:39:24;102192.97;;;9.42;91.74
64908;BME280;64365;-1.756;110.040;2023-02-20T08:41:52;102181.84;;;9.49;91.11
64908;BME280;64365;-1.756;110.040;2023-02-20T08:44:18;102170.97;;;9.42;90.96
64908;BME280;64365;-1.756;110.040;2023-02-20T08:46:46;102190.88;;;9.48;90.90
64908;BME280;64365;-1.756;110.040;2023-02-20T08:49:12;102176.53;;;9.49;91.19
64908;BME280;64365;-1.756;110.040;2023-02-20T08:51:39;102180.41;;;9.52;91.37
64908;BME280;64365;-1.756;110.040;2023-02-20T08:54:05;102173.69;;;9.54;90.69
64908;BME280;64365;-1.756;110.040;2023-02-20T08:56:34;102183.06;;;9.52;91.17
64908;BME280;64365;-1.756;110.040;2023-02-20T08:59:00;102183.22;;;9.55;90.94
64908;BME280;64365;-1.756;110.040;2023-02-20T09:01:27;102184.50;;;9.49;91.14
64908;BME280;64365;-1.756;110.040;2023-02-20T09:03:53;102180.09;;;9.53;91.06
64908;BME280;64365;-1.756;110.040;2023-02-20T09:06:20;102183.41;;;9.50;91.14
64908;BME280;64365;-1.756;110.040;2023-02-20T09:08:48;102191.81;;;9.52;91.27
64908;BME280;64365;-1.756;110.040;2023-02-20T09:11:15;102202.09;;;9.54;90.79
64908;BME280;64365;-1.756;110.040;2023-02-20T09:13:44;102165.78;;;9.46;90.54
64908;BME280;64365;-1.756;110.040;2023-02-20T09:16:11;102181.31;;;9.56;90.67
64908;BME280;64365;-1.756;110.040;2023-02-20T09:18:38;102182.09;;;9.56;90.74
64908;BME280;64365;-1.756;110.040;2023-02-20T09:21:07;102180.81;;;9.63;90.04
64908;BME280;64365;-1.756;110.040;2023-02-20T09:23:34;102186.78;;;9.59;90.42
64908;BME280;64365;-1.756;110.040;2023-02-20T09:26:01;102178.22;;;9.54;90.51
64908;BME280;64365;-1.756;110.040;2023-02-20T09:28:27;102174.75;;;9.62;90.36
64908;BME280;64365;-1.756;110.040;2023-02-20T09:30:55;102167.56;;;9.63;90.38
64908;BME280;64365;-1.756;110.040;2023-02-20T09:33:24;102161.47;;;9.62;90.33
64908;BME280;64365;-1.756;110.040;2023-02-20T09:35:51;102166.56;;;9.67;90.21
64908;BME280;64365;-1.756;110.040;2023-02-20T09:38:19;102174.81;;;9.74;90.04
64908;BME280;64365;-1.756;110.040;2023-02-20T09:40:48;102179.00;;;9.75;89.79
64908;BME280;64365;-1.756;110.040;2023-02-20T09:43:22;102185.28;;;9.71;89.81
64908;BME280;64365;-1.756;110.040;2023-02-20T09:46:00;102174.22;;;9.69;89.34
64908;BME280;64365;-1.756;110.040;2023-02-20T09:48:40;102179.06;;;9.67;89.58
64908;BME280;64365;-1.756;110.040;2023-02-20T09:51:14;102171.88;;;9.67;89.18
64908;BME280;64365;-1.756;110.040;2023-02-20T09:53:49;102179.06;;;9.67;89.90
64908;BME280;64365;-1.756;110.040;2023-02-20T09:56:19;102179.72;;;9.64;90.04
64908;BME280;64365;-1.756;110.040;2023-02-20T09:58:49;102186.53;;;9.73;89.89
64908;BME280;64365;-1.756;110.040;2023-02-20T10:01:21;102186.06;;;9.71;89.79
64908;BME280;64365;-1.756;110.040;2023-02-20T10:03:53;102173.25;;;9.73;89.52
64908;BME280;64365;-1.756;110.040;2023-02-20T10:06:23;102187.94;;;9.71;89.89
64908;BME280;64365;-1.756;110.040;2023-02-20T10:08:52;102179.00;;;9.75;89.56
64908;BME280;64365;-1.756;110.040;2023-02-20T10:11:30;102176.16;;;9.81;89.20
64908;BME280;64365;-1.756;110.040;2023-02-20T10:14:13;102170.59;;;9.73;89.21
64908;BME280;64365;-1.756;110.040;2023-02-20T10:16:50;102174.50;;;9.76;89.07
64908;BME280;64365;-1.756;110.040;2023-02-20T10:19:24;102164.13;;;9.83;88.90
64908;BME280;64365;-1.756;110.040;2023-02-20T10:22:02;102155.44;;;9.74;88.77
64908;BME280;64365;-1.756;110.040;2023-02-20T10:24:49;102183.69;;;9.78;89.40
64908;BME280;64365;-1.756;110.040;2023-02-20T10:27:27;102182.25;;;9.81;89.28
64908;BME280;64365;-1.756;110.040;2023-02-20T10:29:55;102157.72;;;9.84;89.39
64908;BME280;64365;-1.756;110.040;2023-02-20T10:32:29;102146.44;;;9.87;88.81
64908;BME280;64365;-1.756;110.040;2023-02-20T10:35:00;102159.59;;;9.84;89.37
64908;BME280;64365;-1.756;110.040;2023-02-20T10:37:34;102149.56;;;9.89;88.95
64908;BME280;64365;-1.756;110.040;2023-02-20T10:40:07;102146.56;;;9.91;88.82
64908;BME280;64365;-1.756;110.040;2023-02-20T10:42:42;102141.84;;;9.97;88.67
64908;BME280;64365;-1.756;110.040;2023-02-20T10:45:14;102165.94;;;9.91;88.81
64908;BME280;64365;-1.756;110.040;2023-02-20T10:47:46;102177.34;;;9.92;88.62
64908;BME280;64365;-1.756;110.040;2023-02-20T10:50:18;102172.47;;;9.94;88.69
64908;BME280;64365;-1.756;110.040;2023-02-20T10:52:53;102174.34;;;9.93;88.50
64908;BME280;64365;-1.756;110.040;2023-02-20T10:55:24;102169.47;;;9.95;88.26
64908;BME280;64365;-1.756;110.040;2023-02-20T10:57:56;102158.44;;;9.93;88.48
64908;BME280;64365;-1.756;110.040;2023-02-20T11:00:29;102154.44;;;10.00;87.81
64908;BME280;64365;-1.756;110.040;2023-02-20T11:03:03;102149.38;;;9.94;87.69
64908;BME280;64365;-1.756;110.040;2023-02-20T11:05:35;102159.09;;;9.90;88.45
64908;BME280;64365;-1.756;110.040;2023-02-20T11:08:04;102169.38;;;9.92;88.01
64908;BME280;64365;-1.756;110.040;2023-02-20T11:10:31;102166.38;;;9.93;88.57
64908;BME280;64365;-1.756;110.040;2023-02-20T11:13:00;102165.03;;;9.87;87.87
64908;BME280;64365;-1.756;110.040;2023-02-20T11:15:29;102173.91;;;9.91;88.28
64908;BME280;64365;-1.756;110.040;2023-02-20T11:17:59;102152.47;;;9.97;88.08
64908;BME280;64365;-1.756;110.040;2023-02-20T11:20:42;102133.44;;;9.94;87.51
64908;BME280;64365;-1.756;110.040;2023-02-20T11:23:35;102133.88;;;9.97;87.91
64908;BME280;64365;-1.756;110.040;2023-02-20T11:26:28;102152.31;;;9.93;88.17
64908;BME280;64365;-1.756;110.040;2023-02-20T11:29:02;102156.66;;;9.98;88.55
64908;BME280;64365;-1.756;110.040;2023-02-20T11:31:31;102156.16;;;10.04;88.03
64908;BME280;64365;-1.756;110.040;2023-02-20T11:34:00;102147.28;;;10.00;88.00
64908;BME280;64365;-1.756;110.040;2023-02-20T11:36:32;102165.97;;;10.04;88.22
64908;BME280;64365;-1.756;110.040;2023-02-20T11:39:09;102159.13;;;10.03;87.93
64908;BME280;64365;-1.756;110.040;2023-02-20T11:41:39;102171.44;;;10.07;87.70
64908;BME280;64365;-1.756;110.040;2023-02-20T11:44:16;102165.97;;;10.04;88.05
64908;BME280;64365;-1.756;110.040;2023-02-20T11:46:44;102166.13;;;10.07;87.95
64908;BME280;64365;-1.756;110.040;2023-02-20T11:49:22;102164.13;;;10.04;87.87
64908;BME280;64365;-1.756;110.040;2023-02-20T11:51:49;102158.00;;;10.04;87.79
64908;BME280;64365;-1.756;110.040;2023-02-20T11:54:17;102166.88;;;10.08;87.69
64908;BME280;64365;-1.756;110.040;2023-02-20T11:56:54;102174.78;;;9.95;88.00
64908;BME280;64365;-1.756;110.040;2023-02-20T11:59:28;102166.19;;;9.99;88.72
64908;BME280;64365;-1.756;110.040;2023-02-20T12:01:55;102173.31;;;10.07;88.37
64908;BME280;64365;-1.756;110.040;2023-02-20T12:04:36;102161.78;;;10.03;87.58
64908;BME280;64365;-1.756;110.040;2023-02-20T12:07:16;102143.41;;;9.98;88.08
64908;BME280;64365;-1.756;110.040;2023-02-20T12:09:45;102153.81;;;10.03;87.92
64908;BME280;64365;-1.756;110.040;2023-02-20T12:12:15;102145.84;;;10.03;88.15
64908;BME280;64365;-1.756;110.040;2023-02-20T12:14:42;102135.78;;;10.08;87.95
64908;BME280;64365;-1.756;110.040;2023-02-20T12:17:17;102133.91;;;10.09;87.78
64908;BME280;64365;-1.756;110.040;2023-02-20T12:19:53;102126.50;;;10.15;87.77
64908;BME280;64365;-1.756;110.040;2023-02-20T12:22:28;102125.88;;;10.18;87.71
64908;BME280;64365;-1.756;110.040;2023-02-20T12:25:09;102142.56;;;10.18;87.25
64908;BME280;64365;-1.756;110.040;2023-02-20T12:27:52;102155.72;;;10.15;87.40
64908;BME280;64365;-1.756;110.040;2023-02-20T12:30:30;102149.69;;;10.26;87.16
64908;BME280;64365;-1.756;110.040;2023-02-20T12:33:13;102144.28;;;10.23;87.20
64908;BME280;64365;-1.756;110.040;2023-02-20T12:35:54;102129.22;;;10.27;87.11
64908;BME280;64365;-1.756;110.040;2023-02-20T12:38:31;102146.13;;;10.22;87.45
64908;BME280;64365;-1.756;110.040;2023-02-20T12:41:23;102143.28;;;10.27;87.28
64908;BME280;64365;-1.756;110.040;2023-02-20T12:44:03;102137.19;;;10.27;87.17
64908;BME280;64365;-1.756;110.040;2023-02-20T12:46:36;102126.56;;;10.27;87.35
64908;BME280;64365;-1.756;110.040;2023-02-20T12:49:21;102126.78;;;10.22;86.79
64908;BME280;64365;-1.756;110.040;2023-02-20T12:51:56;102133.38;;;10.37;86.83
64908;BME280;64365;-1.756;110.040;2023-02-20T12:54:31;102121.19;;;10.36;86.67
64908;BME280;64365;-1.756;110.040;2023-02-20T12:57:11;102114.56;;;10.42;86.75
64908;BME280;64365;-1.756;110.040;2023-02-20T12:59:48;102128.41;;;10.48;86.47
64908;BME280;64365;-1.756;110.040;2023-02-20T13:02:21;102116.97;;;10.47;86.93
64908;BME280;64365;-1.756;110.040;2023-02-20T13:04:53;102117.09;;;10.51;86.12